Overview Statistics Trail Chart Weather Telemetry Raw packets
 

This is the latest recevied weather packets stored in our database for station/object DB7GV-8. If no packets are shown the sender has not sent any weather packets the latest 10 day(s).

<< 20 21 22 23 24 25 26 >>
Time Temp. Humidity Pressure Rain* Wind** Luminosity Snow
1777239585 8.89° C 60% 1022 hPa - - - -
1777238680 9.44° C 59% 1022 hPa - - - -
1777237774 9.44° C 57% 1021.9 hPa - - - -
1777236869 10° C 56% 1021.9 hPa - - - -
1777235963 10.56° C 55% 1021.8 hPa - - - -
1777235058 10.56° C 55% 1021.7 hPa - - - -
1777234153 11.11° C 53% 1021.6 hPa - - - -
1777233247 11.67° C 52% 1021.4 hPa - - - -
1777232342 12.22° C 51% 1021.4 hPa - - - -
1777231436 12.22° C 50% 1021.2 hPa - - - -
1777230531 13.33° C 48% 1021 hPa - - - -
1777229625 13.89° C 46% 1020.8 hPa - - - -
1777228720 14.44° C 44% 1020.6 hPa - - - -
1777227815 15.56° C 42% 1020.3 hPa - - - -
1777226909 16.11° C 40% 1020.1 hPa - - - -
1777226003 17.22° C 38% 1020 hPa - - - -
1777225098 18.33° C 37% 1019.8 hPa - - - -
1777224193 19.44° C 33% 1019.6 hPa - - - -
1777223288 21.11° C 27% 1019.6 hPa - - - -
1777222382 22.78° C 25% 1019.6 hPa - - - -
1777221477 23.33° C 23% 1019.5 hPa - - - -
1777220572 23.89° C 22% 1019.6 hPa - - - -
1777219666 24.44° C 20% 1019.6 hPa - - - -
1777218760 24.44° C 20% 1019.6 hPa - - - -
1777217855 24.44° C 21% 1019.6 hPa - - - -

* Rain since midnight (hover to see other rain measurements)
** Current wind speed in m/s (hover to see current wind gust speed)